createdAt,value
2022-11-06T13:32:37.208Z,3.42
2022-11-06T13:35:04.197Z,3.08
2022-11-06T13:37:41.139Z,3.85
2022-11-06T13:40:36.117Z,4.53
2022-11-06T13:43:12.978Z,4.22
2022-11-06T13:45:48.240Z,3.67
2022-11-06T13:48:37.482Z,3.88
2022-11-06T13:51:13.899Z,3.03
2022-11-06T13:53:59.951Z,3.47
2022-11-06T13:56:52.145Z,2.88
2022-11-06T13:59:25.753Z,3.63
2022-11-06T14:02:13.010Z,3.65
2022-11-06T14:04:58.584Z,2.92
2022-11-06T14:07:30.181Z,2.25
2022-11-06T14:09:57.048Z,2.75
2022-11-06T14:12:26.820Z,2.72
2022-11-06T14:15:14.725Z,2.45
2022-11-06T14:17:41.328Z,2.17
2022-11-06T14:20:27.739Z,2.55
2022-11-06T14:22:54.183Z,2.95
2022-11-06T14:25:29.786Z,2.78
2022-11-06T14:27:56.217Z,2.72
2022-11-06T14:30:57.715Z,3.15
2022-11-06T14:33:49.254Z,2.65
2022-11-06T14:36:24.632Z,2.92
2022-11-06T14:38:52.197Z,3.30
2022-11-06T14:41:33.615Z,2.10
2022-11-06T14:44:05.666Z,2.37
2022-11-06T14:49:15.724Z,2.25
2022-11-06T14:51:42.361Z,2.70
2022-11-06T14:54:23.225Z,2.65
2022-11-06T14:56:54.343Z,2.67
2022-11-06T14:59:29.728Z,2.95
2022-11-06T15:02:15.152Z,2.20
2022-11-06T15:04:46.466Z,2.78
2022-11-06T15:07:58.718Z,3.25
2022-11-06T15:10:44.614Z,4.15
2022-11-06T15:13:17.109Z,4.47
2022-11-06T15:15:46.246Z,3.53
2022-11-06T15:18:20.651Z,4.13
2022-11-06T15:20:57.799Z,3.97
2022-11-06T15:23:40.326Z,3.30
2022-11-06T15:26:20.818Z,3.45
2022-11-06T15:28:55.542Z,3.13
2022-11-06T15:31:27.072Z,3.25
2022-11-06T15:33:59.624Z,3.22
2022-11-06T15:36:28.073Z,3.55
2022-11-06T15:38:54.707Z,3.17
2022-11-06T15:41:24.653Z,2.78
2022-11-06T15:43:54.910Z,3.70
2022-11-06T15:46:22.964Z,2.85
2022-11-06T15:49:08.096Z,3.63
2022-11-06T15:51:39.384Z,3.22
2022-11-06T15:54:06.949Z,3.83
2022-11-06T15:56:37.210Z,3.35
2022-11-06T15:59:16.990Z,7.43
2022-11-06T16:01:48.698Z,8.35
2022-11-06T16:04:22.867Z,4.72
2022-11-06T16:06:52.069Z,4.43
2022-11-06T16:09:21.676Z,3.30
2022-11-06T16:11:51.371Z,3.55
2022-11-06T16:14:18.952Z,3.15
2022-11-06T16:16:51.649Z,3.03
2022-11-06T16:19:18.367Z,2.47
2022-11-06T16:21:56.401Z,2.70
2022-11-06T16:24:24.700Z,2.97
2022-11-06T16:26:54.220Z,3.10
2022-11-06T16:29:27.331Z,3.60
2022-11-06T16:32:02.474Z,2.92
2022-11-06T16:34:31.981Z,8.05
2022-11-06T16:37:01.376Z,7.38
2022-11-06T16:39:47.694Z,2.72
2022-11-06T16:42:22.028Z,3.55
2022-11-06T16:44:49.614Z,2.50
2022-11-06T16:47:18.771Z,4.63
2022-11-06T16:49:52.859Z,12.68
2022-11-06T16:52:29.147Z,16.73
2022-11-06T16:54:58.328Z,2.67
2022-11-06T16:57:28.712Z,2.58
2022-11-06T16:59:58.663Z,2.78
2022-11-06T17:02:29.177Z,2.72
2022-11-06T17:05:17.536Z,2.58
2022-11-06T17:07:45.706Z,3.17
2022-11-06T17:10:51.661Z,3.13
2022-11-06T17:13:34.429Z,3.97
2022-11-06T17:16:05.605Z,3.05
2022-11-06T17:18:34.909Z,3.03
2022-11-06T17:21:14.242Z,2.42
2022-11-06T17:23:40.781Z,3.33
2022-11-06T17:26:22.483Z,3.30
2022-11-06T17:28:49.070Z,2.97
2022-11-06T17:31:19.683Z,3.63
2022-11-06T17:33:46.615Z,4.35
2022-11-06T17:36:18.091Z,6.28
2022-11-06T17:38:47.797Z,7.85
2022-11-06T17:41:29.569Z,5.03
2022-11-06T17:44:00.134Z,5.45
2022-11-06T17:46:29.829Z,6.00
2022-11-06T17:48:59.038Z,5.50
2022-11-06T17:51:44.684Z,4.68
2022-11-06T17:54:11.166Z,6.18
2022-11-06T17:56:38.516Z,4.97
2022-11-06T17:59:05.353Z,7.93
2022-11-06T18:01:32.273Z,4.57
2022-11-06T18:03:58.868Z,5.22
2022-11-06T18:06:28.632Z,4.97
2022-11-06T18:08:59.999Z,6.20
2022-11-06T18:11:27.614Z,5.13
2022-11-06T18:13:56.136Z,5.40
2022-11-06T18:16:27.535Z,5.82
2022-11-06T18:18:54.538Z,6.90
2022-11-06T18:21:21.345Z,5.70
2022-11-06T18:23:48.063Z,4.88
2022-11-06T18:26:14.666Z,4.82
2022-11-06T18:28:41.189Z,4.55
2022-11-06T18:31:07.747Z,4.78
2022-11-06T18:33:34.181Z,4.50
2022-11-06T18:36:09.035Z,3.85
2022-11-06T18:38:36.401Z,4.63
2022-11-06T18:41:10.672Z,4.68
2022-11-06T18:43:37.104Z,3.95
2022-11-06T18:46:08.068Z,3.97
2022-11-06T18:48:38.071Z,4.53
2022-11-06T18:51:06.813Z,4.20
2022-11-06T18:53:33.404Z,3.60
2022-11-06T18:55:59.995Z,4.00
2022-11-06T18:58:26.575Z,3.80
2022-11-06T19:01:01.456Z,3.83
2022-11-06T19:03:28.452Z,4.28
2022-11-06T19:05:54.953Z,4.10
2022-11-06T19:08:22.215Z,3.33
2022-11-06T19:10:50.852Z,4.13
2022-11-06T19:13:19.653Z,4.15
2022-11-06T19:15:46.218Z,3.80
2022-11-06T19:18:13.386Z,4.55
2022-11-06T19:20:46.277Z,4.10
2022-11-06T19:23:16.736Z,3.95
2022-11-06T19:25:43.446Z,3.72
2022-11-06T19:28:12.943Z,4.20
2022-11-06T19:30:39.884Z,4.53
2022-11-06T19:33:06.391Z,4.80
2022-11-06T19:35:33.123Z,4.72
2022-11-06T19:38:04.241Z,4.85
2022-11-06T19:40:30.605Z,5.13
2022-11-06T19:42:57.986Z,4.65
2022-11-06T19:45:26.240Z,5.20
2022-11-06T19:47:53.215Z,4.47
2022-11-06T19:50:39.161Z,4.60
2022-11-06T19:53:06.305Z,6.82
2022-11-06T19:55:32.732Z,7.05
2022-11-06T19:57:59.140Z,6.32
2022-11-06T20:00:25.609Z,6.78
2022-11-06T20:02:51.983Z,5.32
2022-11-06T20:05:18.394Z,6.07
2022-11-06T20:07:45.135Z,4.50
2022-11-06T20:10:11.643Z,5.25
2022-11-06T20:12:42.991Z,4.97
2022-11-06T20:15:09.758Z,5.00
2022-11-06T20:17:36.287Z,5.80
2022-11-06T20:20:02.769Z,5.15
2022-11-06T20:22:29.209Z,5.15
2022-11-06T20:24:55.722Z,5.82
2022-11-06T20:27:22.213Z,5.05
2022-11-06T20:29:48.793Z,5.32
2022-11-06T20:32:19.048Z,4.45
2022-11-06T20:34:46.099Z,4.25
2022-11-06T20:37:12.866Z,4.32
2022-11-06T20:39:41.417Z,4.00
2022-11-06T20:42:07.886Z,3.53
2022-11-06T20:44:36.580Z,4.47
2022-11-06T20:47:03.452Z,3.88
2022-11-06T20:49:29.901Z,4.80
2022-11-06T20:52:13.357Z,4.57
2022-11-06T20:54:46.420Z,3.88
2022-11-06T20:57:14.849Z,3.78
2022-11-06T20:59:41.328Z,3.55
2022-11-06T21:02:10.770Z,4.68
2022-11-06T21:04:39.709Z,4.35
2022-11-06T21:07:09.302Z,3.75
2022-11-06T21:09:35.813Z,4.43
2022-11-06T21:12:04.799Z,4.03
2022-11-06T21:14:31.635Z,3.97
2022-11-06T21:16:58.361Z,4.03
2022-11-06T21:19:28.063Z,4.00
2022-11-06T21:21:59.323Z,3.40
2022-11-06T21:24:25.772Z,3.30
2022-11-06T21:26:55.128Z,4.43
2022-11-06T21:29:23.240Z,4.00
2022-11-06T21:31:50.663Z,3.63
2022-11-06T21:34:18.981Z,4.00
2022-11-06T21:36:46.697Z,3.17
2022-11-06T21:39:16.493Z,3.10
2022-11-06T21:41:43.603Z,3.35
2022-11-06T21:44:14.240Z,3.00
2022-11-06T21:46:44.245Z,3.63
2022-11-06T21:49:14.112Z,3.08
2022-11-06T21:51:41.782Z,3.83
2022-11-06T21:54:30.435Z,4.07
2022-11-06T21:56:59.197Z,4.30
2022-11-06T21:59:27.977Z,3.33
2022-11-06T22:01:54.688Z,3.80
2022-11-06T22:04:21.350Z,5.75
2022-11-06T22:06:47.774Z,3.75
2022-11-06T22:09:14.328Z,3.88
2022-11-06T22:11:43.571Z,3.35
2022-11-06T22:14:15.966Z,3.65
2022-11-06T22:16:45.345Z,3.25
2022-11-06T22:19:13.481Z,2.78
2022-11-06T22:21:42.880Z,2.78
2022-11-06T22:24:11.823Z,2.70
2022-11-06T22:26:38.224Z,2.60
2022-11-06T22:29:11.128Z,2.40
2022-11-06T22:31:37.633Z,1.88
2022-11-06T22:34:06.589Z,1.95
2022-11-06T22:36:36.316Z,2.08
2022-11-06T22:39:07.756Z,1.90
2022-11-06T22:41:34.569Z,2.03
2022-11-06T22:44:01.833Z,1.98
2022-11-06T22:46:29.308Z,2.67
2022-11-06T22:48:58.646Z,2.22
2022-11-06T22:51:29.299Z,2.30
2022-11-06T22:53:59.438Z,1.88
2022-11-06T22:56:27.835Z,1.98
2022-11-06T22:58:56.499Z,2.10
2022-11-06T23:01:24.705Z,2.00
2022-11-06T23:03:56.334Z,2.15
2022-11-06T23:06:26.238Z,2.15
2022-11-06T23:08:53.202Z,2.25
2022-11-06T23:11:21.271Z,2.60
2022-11-06T23:13:48.499Z,1.73
2022-11-06T23:16:40.850Z,2.10
2022-11-06T23:19:08.246Z,1.98
2022-11-06T23:21:37.304Z,2.55
2022-11-06T23:24:04.631Z,2.55
2022-11-06T23:26:33.752Z,1.85
2022-11-06T23:29:02.294Z,2.53
2022-11-06T23:31:31.113Z,1.92
2022-11-06T23:33:57.801Z,2.15
2022-11-06T23:36:24.285Z,1.73
2022-11-06T23:38:53.272Z,2.15
2022-11-06T23:41:40.807Z,2.05
2022-11-06T23:44:27.190Z,1.88
2022-11-06T23:46:53.704Z,2.13
2022-11-06T23:49:20.266Z,2.10
2022-11-06T23:51:46.923Z,1.80
2022-11-06T23:54:13.428Z,2.30
2022-11-06T23:56:39.902Z,1.98
2022-11-06T23:59:08.622Z,1.75
